Time;durP1;ratioP1;P1;durP2;ratioP2;P2;SDS_P1;SDS_P2;PMS_P1;PMS_P2;Temp;Humidity;BMP_temperature;BMP_pressure;BME280_temperature;BME280_humidity;BME280_pressure;Samples;Min_cycle;Max_cycle;Signal;HPM_P1;HPM_P2
2021/07/16 00:01:41;;;;;;;;;12.00;10.00;;;;;19.68;60.09;102007.19;4908813;28;45337;-74
2021/07/16 00:04:07;;;;;;;;;9.00;9.00;;;;;19.70;60.28;102008.00;4927985;28;45308;-74
2021/07/16 00:06:32;;;;;;;;;11.50;10.25;;;;;19.70;60.35;102007.13;4906905;28;46319;-76
2021/07/16 00:08:58;;;;;;;;;8.50;8.50;;;;;19.67;60.41;102010.81;4909325;28;45447;-76
2021/07/16 00:11:24;;;;;;;;;12.75;11.00;;;;;19.66;60.19;102004.63;4919634;28;45316;-77
2021/07/16 00:13:49;;;;;;;;;11.50;9.75;;;;;19.59;60.71;101994.34;4922949;28;45404;-77
2021/07/16 00:16:14;;;;;;;;;9.25;9.25;;;;;19.58;60.51;101995.31;4922625;28;46700;-77
2021/07/16 00:18:40;;;;;;;;;11.75;9.00;;;;;19.56;60.49;101988.22;4918844;28;45498;-78
2021/07/16 00:21:06;;;;;;;;;12.75;9.25;;;;;19.57;60.58;101989.09;4922492;28;45472;-78
2021/07/16 00:23:31;;;;;;;;;9.00;9.00;;;;;19.58;60.99;102006.84;4924409;28;45262;-77
2021/07/16 00:25:57;;;;;;;;;14.50;10.00;;;;;19.54;60.88;101989.25;4915601;28;45398;-77
2021/07/16 00:28:24;;;;;;;;;16.50;12.25;;;;;19.53;60.84;101999.03;4923382;28;45322;-77
2021/07/16 05:05:28;;;;;;;;;8.25;7.75;;;;;18.69;67.78;102033.28;4876183;29;45586;-72
2021/07/16 05:07:53;;;;;;;;;8.25;7.00;;;;;18.67;67.97;102028.03;4887541;29;45445;-72
2021/07/16 05:10:18;;;;;;;;;7.00;7.00;;;;;18.66;67.53;102036.09;4880568;29;45904;-72
2021/07/16 05:12:44;;;;;;;;;8.75;6.75;;;;;18.65;67.85;102040.53;4876561;29;46946;-72
2021/07/16 05:15:10;;;;;;;;;6.00;6.00;;;;;18.65;67.67;102029.03;4887867;29;46029;-72
2021/07/16 05:17:36;;;;;;;;;6.75;6.75;;;;;18.65;68.20;102037.88;4872060;29;45449;-72
2021/07/16 05:20:06;;;;;;;;;8.00;8.00;;;;;18.62;67.70;102035.34;4872653;29;46188;-72
2021/07/16 05:22:32;;;;;;;;;9.75;9.00;;;;;18.59;67.89;102032.84;4881537;29;47496;-72
2021/07/16 05:24:57;;;;;;;;;10.00;8.00;;;;;18.61;68.26;102033.66;4884044;29;45408;-72
2021/07/16 05:27:22;;;;;;;;;6.00;6.00;;;;;18.62;67.90;102034.50;4883913;29;47072;-72
2021/07/16 05:29:48;;;;;;;;;6.25;6.25;;;;;18.63;67.66;102042.41;4883235;29;46476;-72
2021/07/16 05:32:13;;;;;;;;;7.75;6.00;;;;;18.63;67.80;102037.09;4899410;29;47198;-72
2021/07/16 05:34:39;;;;;;;;;6.50;6.50;;;;;18.67;68.12;102049.31;4884503;29;45478;-72
2021/07/16 05:37:04;;;;;;;;;7.25;6.75;;;;;18.71;67.79;102043.84;4883307;29;45424;-72
2021/07/16 05:39:30;;;;;;;;;7.25;6.75;;;;;18.73;67.89;102044.66;4883863;29;45526;-72
2021/07/16 05:41:55;;;;;;;;;8.75;7.00;;;;;18.75;68.01;102043.63;4881377;29;45436;-72
2021/07/16 05:44:20;;;;;;;;;8.50;6.75;;;;;18.80;67.57;102047.88;4885784;29;46487;-72
2021/07/16 05:46:46;;;;;;;;;9.00;7.25;;;;;18.82;67.26;102057.53;4884505;29;45510;-72
2021/07/16 05:49:11;;;;;;;;;7.25;6.50;;;;;18.84;67.11;102052.16;4884771;29;45364;-72
2021/07/16 05:51:36;;;;;;;;;8.50;7.50;;;;;18.85;67.15;102048.53;4894489;29;47181;-72
2021/07/16 05:54:02;;;;;;;;;6.75;6.00;;;;;18.84;66.95;102055.66;4898255;28;45560;-72
2021/07/16 05:56:27;;;;;;;;;5.75;5.75;;;;;18.85;67.44;102062.72;4899565;29;45336;-72
2021/07/16 05:58:52;;;;;;;;;8.00;8.00;;;;;18.85;67.32;102061.84;4883285;29;45319;-72
2021/07/16 06:01:18;;;;;;;;;7.50;6.50;;;;;18.85;67.27;102065.38;4883720;29;45421;-72
2021/07/16 06:03:43;;;;;;;;;7.00;6.50;;;;;18.87;67.55;102063.50;4881629;29;46201;-72
2021/07/16 06:06:09;;;;;;;;;9.00;9.00;;;;;18.93;67.36;102064.16;4883227;29;45461;-74
2021/07/16 06:08:34;;;;;;;;;8.00;6.75;;;;;18.93;66.90;102066.81;4882883;29;45289;-72
2021/07/16 06:10:59;;;;;;;;;9.75;6.00;;;;;18.92;67.03;102068.59;4898701;28;48248;-73
2021/07/16 06:13:25;;;;;;;;;7.25;6.25;;;;;18.91;66.77;102074.88;4884260;29;45271;-73
2021/07/16 06:15:51;;;;;;;;;10.25;5.50;;;;;18.85;67.43;102077.81;4883968;29;45326;-73
2021/07/16 06:18:16;;;;;;;;;6.25;6.00;;;;;18.74;67.63;102078.34;4883611;29;45559;-73
2021/07/16 06:20:44;;;;;;;;;9.25;4.50;;;;;18.65;67.94;102071.63;4881125;29;46853;-73
2021/07/16 06:23:11;;;;;;;;;8.25;7.25;;;;;18.60;67.92;102090.47;4884306;29;45374;-72
2021/07/16 06:25:36;;;;;;;;;7.00;6.00;;;;;18.61;67.99;102084.22;4881792;29;45355;-72
2021/07/16 06:28:02;;;;;;;;;7.25;6.00;;;;;18.64;67.68;102097.38;4880106;29;45535;-72
2021/07/16 06:30:27;;;;;;;;;6.25;6.25;;;;;18.69;67.60;102091.88;4883236;29;45339;-73
2021/07/16 06:32:52;;;;;;;;;5.25;5.25;;;;;18.71;67.52;102091.78;4883845;29;45305;-73
2021/07/16 06:35:18;;;;;;;;;8.25;6.00;;;;;18.74;67.60;102097.81;4884535;29;45297;-74
2021/07/16 06:37:43;;;;;;;;;4.00;4.00;;;;;18.73;67.97;102100.56;4882465;29;45901;-74
2021/07/16 06:40:09;;;;;;;;;5.50;4.75;;;;;18.73;67.50;102095.25;4882757;29;47043;-74
2021/07/16 06:42:35;;;;;;;;;4.50;4.25;;;;;18.75;67.61;102098.69;4903200;28;45506;-73
2021/07/16 06:45:00;;;;;;;;;3.00;3.00;;;;;18.75;67.26;102098.69;4892473;29;45250;-74
2021/07/16 06:47:26;;;;;;;;;3.50;3.50;;;;;18.76;67.50;102106.63;4883957;29;45619;-74
2021/07/16 06:49:51;;;;;;;;;5.25;3.75;;;;;18.80;67.38;102099.34;4883653;29;45389;-74
2021/07/16 06:52:17;;;;;;;;;6.25;5.00;;;;;18.85;67.49;102107.13;4882982;29;45391;-73
2021/07/16 06:54:42;;;;;;;;;6.75;5.00;;;;;18.82;67.92;102113.44;4879793;29;45413;-73
2021/07/16 06:57:08;;;;;;;;;4.25;4.25;;;;;18.75;67.62;102104.03;4878023;29;45314;-73
2021/07/16 06:59:33;;;;;;;;;5.00;5.00;;;;;18.74;67.79;102119.13;4883728;29;45994;-73
2021/07/16 07:01:59;;;;;;;;;7.00;5.00;;;;;18.74;67.30;102113.81;4884093;29;45617;-73
2021/07/16 07:04:24;;;;;;;;;10.00;6.00;;;;;18.74;67.13;102113.81;4883559;29;45314;-73
2021/07/16 07:06:50;;;;;;;;;3.75;3.75;;;;;18.73;67.16;102116.53;4894663;29;45977;-73
2021/07/16 07:09:16;;;;;;;;;4.50;2.50;;;;;18.73;66.87;102116.53;4877555;29;45609;-73
2021/07/16 07:11:42;;;;;;;;;3.00;3.00;;;;;18.76;67.18;102121.75;4889013;29;45499;-74
2021/07/16 07:14:07;;;;;;;;;4.00;4.00;;;;;18.74;66.92;102126.28;4897875;29;45329;-74
2021/07/16 07:16:33;;;;;;;;;4.00;4.00;;;;;18.73;66.73;102130.72;4883655;29;45456;-73
2021/07/16 07:19:00;;;;;;;;;3.25;3.00;;;;;18.72;66.70;102131.66;4906568;28;47265;-73
2021/07/16 07:21:25;;;;;;;;;4.00;2.25;;;;;18.70;67.00;102128.19;4883402;29;45583;-73
2021/07/16 07:23:50;;;;;;;;;2.50;2.50;;;;;18.69;66.85;102122.97;4883870;29;45272;-73
2021/07/16 07:26:16;;;;;;;;;4.00;3.25;;;;;18.66;67.28;102123.97;4883677;29;45287;-73
2021/07/16 07:28:41;;;;;;;;;3.50;3.25;;;;;18.63;67.72;102130.28;4883730;29;47105;-74
2021/07/16 07:31:06;;;;;;;;;3.00;3.00;;;;;18.58;67.41;102124.31;4882627;29;45201;-74
2021/07/16 07:33:32;;;;;;;;;3.25;3.25;;;;;18.57;67.91;102127.88;4882918;29;45232;-74
2021/07/16 07:35:57;;;;;;;;;6.00;5.75;;;;;18.57;67.91;102127.88;4879666;29;45526;-74
2021/07/16 07:38:23;;;;;;;;;7.50;7.50;;;;;18.60;67.78;102132.22;4887019;29;46081;-75
2021/07/16 07:40:49;;;;;;;;;7.50;7.50;;;;;18.59;67.69;102130.50;4884914;29;45650;-75
2021/07/16 07:43:15;;;;;;;;;4.50;4.50;;;;;18.57;67.86;102135.88;4883738;29;45391;-75
2021/07/16 07:45:40;;;;;;;;;5.00;5.00;;;;;18.55;67.65;102141.28;4883503;29;45339;-76
2021/07/16 07:48:06;;;;;;;;;6.75;4.00;;;;;18.53;67.84;102134.28;4882320;29;46538;-75
2021/07/16 07:50:31;;;;;;;;;4.25;3.25;;;;;18.50;67.89;102129.09;4881762;29;45336;-75
2021/07/16 07:52:57;;;;;;;;;2.75;2.75;;;;;18.51;67.80;102139.69;4882711;29;45291;-74
2021/07/16 07:55:24;;;;;;;;;4.00;4.00;;;;;18.53;67.95;102142.28;4883542;29;45486;-74
2021/07/16 07:57:51;;;;;;;;;6.00;6.00;;;;;18.58;67.99;102148.25;4870071;29;45524;-74
2021/07/16 08:00:20;;;;;;;;;4.50;3.00;;;;;18.62;67.46;102138.34;4887591;29;45355;-74
2021/07/16 08:02:45;;;;;;;;;2.75;2.00;;;;;18.66;67.28;102139.94;4870074;29;45353;-74
2021/07/16 08:05:12;;;;;;;;;4.25;2.00;;;;;18.73;67.56;102148.50;4883321;29;45489;-74
2021/07/16 08:07:38;;;;;;;;;4.50;2.75;;;;;18.78;66.76;102146.50;4885863;29;45434;-74
2021/07/16 08:10:06;;;;;;;;;3.25;3.25;;;;;18.80;66.83;102152.63;4884554;29;45431;-74
2021/07/16 08:12:31;;;;;;;;;2.25;2.00;;;;;18.88;66.64;102154.94;4887060;29;45443;-74
2021/07/16 08:14:56;;;;;;;;;4.00;3.00;;;;;18.93;66.52;102157.38;4883365;29;45529;-74
2021/07/16 08:17:22;;;;;;;;;3.50;3.00;;;;;18.98;66.46;102152.72;4898856;29;48149;-74
2021/07/16 08:19:47;;;;;;;;;3.25;3.00;;;;;19.06;66.44;102163.84;4884265;29;45332;-74
2021/07/16 08:22:13;;;;;;;;;3.50;3.50;;;;;19.11;66.08;102158.34;4885722;29;45222;-74
2021/07/16 08:24:38;;;;;;;;;4.50;2.00;;;;;19.17;65.74;102158.06;4883979;29;45398;-74
2021/07/16 08:27:04;;;;;;;;;2.00;2.00;;;;;19.22;65.57;102166.72;4884160;29;46202;-74
2021/07/16 08:29:29;;;;;;;;;3.75;3.00;;;;;19.26;65.27;102162.09;4885078;29;45402;-74
2021/07/16 08:31:54;;;;;;;;;2.25;1.00;;;;;19.26;65.31;102167.41;4881937;29;45306;-74
2021/07/16 08:34:20;;;;;;;;;2.00;1.00;;;;;19.28;64.49;102170.03;4883566;29;45727;-74
2021/07/16 08:36:45;;;;;;;;;2.50;2.00;;;;;19.27;64.67;102176.28;4883681;29;47114;-74
2021/07/16 08:39:11;;;;;;;;;3.00;0.50;;;;;19.28;64.35;102173.56;4885896;29;45562;-74
2021/07/16 08:41:37;;;;;;;;;1.25;1.00;;;;;19.28;64.39;102176.22;4888326;29;45283;-74
2021/07/16 08:44:03;;;;;;;;;3.50;2.00;;;;;19.25;64.55;102173.69;4889789;29;45297;-74
2021/07/16 08:46:29;;;;;;;;;1.00;1.00;;;;;19.25;63.84;102184.38;4885614;29;47788;-74
2021/07/16 08:48:58;;;;;;;;;2.00;2.00;;;;;19.24;64.33;102182.63;4885647;29;45467;-74
2021/07/16 08:51:24;;;;;;;;;2.50;1.00;;;;;19.22;64.46;102182.72;4868415;29;45348;-74
2021/07/16 08:53:54;;;;;;;;;1.00;1.00;;;;;19.24;64.46;102185.28;4883507;29;45488;-74
2021/07/16 08:56:22;;;;;;;;;1.75;1.25;;;;;19.29;64.64;102177.94;4885618;29;45257;-74
2021/07/16 08:58:47;;;;;;;;;1.50;0.75;;;;;19.32;63.89;102176.94;4884635;29;45557;-74
2021/07/16 09:01:13;;;;;;;;;1.75;0.75;;;;;19.33;64.11;102182.19;4885469;29;45718;-74
2021/07/16 09:03:58;;;;;;;;;0.00;0.00;;;;;19.37;63.91;102179.38;4883637;29;45390;-74
2021/07/16 09:06:54;;;;;;;;;1.00;0.00;;;;;19.37;63.66;102187.38;4885538;29;46085;-74
2021/07/16 09:09:31;;;;;;;;;3.25;2.50;;;;;19.40;64.23;102184.56;4883605;29;45490;-73
2021/07/16 09:11:58;;;;;;;;;1.00;0.00;;;;;19.45;63.33;102191.41;4885087;29;45384;-72
2021/07/16 09:14:29;;;;;;;;;1.00;1.00;;;;;19.50;63.40;102177.88;4885198;29;45322;-76
2021/07/16 09:16:58;;;;;;;;;2.75;1.75;;;;;19.58;63.75;102187.28;4885198;29;46212;-79
2021/07/16 09:19:27;;;;;;;;;1.00;1.00;;;;;19.66;63.51;102179.75;4885116;29;45294;-78
2021/07/16 09:22:16;;;;;;;;;3.00;2.75;;;;;19.75;63.40;102179.34;4884093;29;45458;-76
2021/07/16 09:24:49;;;;;;;;;1.50;1.50;;;;;19.78;63.06;102178.28;4873716;29;45556;-77
2021/07/16 09:27:40;;;;;;;;;2.00;2.00;;;;;19.83;63.44;102176.25;4883882;29;45675;-76
2021/07/16 09:30:23;;;;;;;;;3.00;3.00;;;;;19.81;63.60;102177.28;4884839;29;45571;-77
2021/07/16 09:33:01;;;;;;;;;4.75;3.75;;;;;19.77;63.31;102168.59;4884420;29;45224;-76
2021/07/16 09:35:34;;;;;;;;;4.75;3.00;;;;;19.73;63.59;102178.53;4884591;29;45296;-75
2021/07/16 09:38:05;;;;;;;;;5.25;4.00;;;;;19.73;63.58;102175.84;4884672;29;46098;-75
2021/07/16 09:40:39;;;;;;;;;7.25;4.75;;;;;19.71;63.60;102188.41;4884795;29;45284;-75
2021/07/16 09:43:10;;;;;;;;;3.25;3.00;;;;;19.67;63.39;102192.19;4884413;29;45275;-76
2021/07/16 09:45:37;;;;;;;;;5.00;3.75;;;;;19.63;63.21;102190.59;4884399;29;45506;-75
2021/07/16 09:48:37;;;;;;;;;5.00;3.00;;;;;19.59;63.32;102200.53;4884485;29;45457;-75
2021/07/16 09:51:20;;;;;;;;;3.25;3.00;;;;;19.56;63.32;102212.22;4885331;29;45431;-75
2021/07/16 09:53:49;;;;;;;;;4.50;3.00;;;;;19.58;63.42;102208.63;4884165;29;45578;-75
2021/07/16 09:56:23;;;;;;;;;2.50;2.50;;;;;19.57;63.19;102210.44;4872769;29;47260;-75
2021/07/16 09:59:05;;;;;;;;;4.00;4.00;;;;;19.59;63.67;102211.22;4884571;29;45402;-75
2021/07/16 10:01:33;;;;;;;;;3.25;3.00;;;;;19.63;62.99;102201.28;4884451;29;45482;-75
2021/07/16 10:04:00;;;;;;;;;4.75;4.00;;;;;19.67;62.64;102210.84;4883899;29;45485;-74
2021/07/16 10:06:29;;;;;;;;;5.00;3.75;;;;;19.69;62.65;102206.28;4888393;29;45292;-75
2021/07/16 10:08:56;;;;;;;;;4.50;4.25;;;;;19.69;62.46;102206.28;4884066;29;46347;-76
2021/07/16 10:11:24;;;;;;;;;7.50;4.25;;;;;19.70;62.46;102210.72;4883117;29;45703;-75
2021/07/16 10:13:49;;;;;;;;;4.00;4.00;;;;;19.78;62.81;102203.16;4883204;29;45894;-75
2021/07/16 10:16:15;;;;;;;;;4.00;4.00;;;;;19.86;62.45;102215.25;4884385;29;45556;-75
2021/07/16 10:18:41;;;;;;;;;9.50;5.00;;;;;19.90;62.19;102216.88;4883741;29;46310;-75
2021/07/16 10:21:08;;;;;;;;;4.25;4.25;;;;;19.93;61.57;102222.03;4884214;29;45427;-76
2021/07/16 10:23:34;;;;;;;;;5.00;5.00;;;;;19.91;61.66;102210.56;4884386;29;45352;-76
2021/07/16 10:26:04;;;;;;;;;5.00;3.25;;;;;19.92;62.23;102217.66;4884645;29;45367;-76
2021/07/16 10:28:41;;;;;;;;;5.50;4.75;;;;;19.93;62.13;102216.69;4882856;29;46584;-76
2021/07/16 10:31:36;;;;;;;;;5.25;4.00;;;;;19.96;61.79;102223.69;4883674;29;45217;-75
2021/07/16 10:34:05;;;;;;;;;5.00;4.75;;;;;19.97;61.71;102223.63;4883949;29;45528;-75
2021/07/16 10:36:39;;;;;;;;;6.00;6.00;;;;;19.95;61.42;102224.63;4879849;29;45411;-76
2021/07/16 10:39:08;;;;;;;;;6.00;5.25;;;;;19.92;60.99;102231.00;4882031;29;47186;-76
2021/07/16 10:41:38;;;;;;;;;4.75;4.50;;;;;19.83;60.81;102240.28;4882831;29;45615;-76
2021/07/16 10:44:08;;;;;;;;;5.50;4.75;;;;;19.81;61.43;102235.97;4873431;29;45406;-76
2021/07/16 10:46:38;;;;;;;;;7.00;5.00;;;;;19.77;61.22;102248.59;4884331;29;45433;-76
2021/07/16 10:49:06;;;;;;;;;6.50;5.75;;;;;19.73;61.33;102239.88;4883666;29;45363;-76
2021/07/16 10:51:33;;;;;;;;;4.50;4.50;;;;;19.73;61.33;102247.88;4884651;29;45621;-76
2021/07/16 10:54:01;;;;;;;;;11.00;6.50;;;;;19.73;61.22;102247.88;4884081;29;45237;-75
2021/07/16 10:57:11;;;;;;;;;6.25;6.25;;;;;19.72;61.27;102247.97;4883722;29;45276;-75
2021/07/16 10:59:48;;;;;;;;;10.75;9.00;;;;;19.70;61.28;102255.19;4873224;29;45579;-75
2021/07/16 11:02:38;;;;;;;;;8.25;6.25;;;;;19.72;61.24;102261.28;4883980;29;45536;-75
2021/07/16 11:05:28;;;;;;;;;8.75;7.75;;;;;19.74;61.45;102254.09;4884035;29;45352;-75
2021/07/16 11:07:53;;;;;;;;;10.50;7.25;;;;;19.76;60.89;102252.19;4885894;29;45275;-76
2021/07/16 11:10:44;;;;;;;;;13.50;10.25;;;;;19.79;60.75;102263.59;4884043;29;45566;-76
2021/07/16 11:13:30;;;;;;;;;9.25;8.50;;;;;19.79;60.26;102265.41;4883122;29;45359;-75
2021/07/16 11:15:55;;;;;;;;;8.50;7.25;;;;;19.74;60.47;102265.63;4873537;29;45324;-76
2021/07/16 11:18:27;;;;;;;;;11.00;8.75;;;;;19.72;60.13;102267.50;4883773;29;45453;-75
2021/07/16 11:20:56;;;;;;;;;11.75;8.00;;;;;19.69;60.05;102267.63;4883791;29;46364;-76
2021/07/16 11:23:50;;;;;;;;;12.25;9.25;;;;;19.65;60.28;102264.28;4883466;29;45295;-75
2021/07/16 11:26:17;;;;;;;;;10.25;7.00;;;;;19.64;59.86;102265.19;4882855;29;45341;-75
2021/07/16 11:28:43;;;;;;;;;9.75;7.25;;;;;19.63;59.59;102259.94;4883156;29;45499;-76
2021/07/16 11:31:08;;;;;;;;;7.50;7.00;;;;;19.67;59.95;102265.06;4898329;29;48217;-76
2021/07/16 11:33:33;;;;;;;;;7.00;7.00;;;;;19.75;59.61;102258.50;4883355;29;45253;-76
2021/07/16 11:35:59;;;;;;;;;11.75;9.00;;;;;19.86;60.21;102269.50;4883627;29;45144;-76
2021/07/16 11:38:25;;;;;;;;;9.00;8.75;;;;;19.96;59.20;102253.91;4882692;29;45888;-76
2021/07/16 11:40:50;;;;;;;;;10.00;8.75;;;;;20.04;59.17;102258.00;4882847;29;48226;-76
2021/07/16 11:43:16;;;;;;;;;8.50;5.25;;;;;20.11;59.20;102248.78;4881725;29;45313;-76
2021/07/16 11:45:43;;;;;;;;;10.50;9.00;;;;;20.15;59.11;102241.50;4901151;29;45199;-76
2021/07/16 11:48:16;;;;;;;;;10.50;9.25;;;;;20.23;58.50;102255.31;4886498;29;45478;-76
2021/07/16 11:50:46;;;;;;;;;9.25;7.50;;;;;20.27;58.32;102248.03;4885262;29;47401;-75
2021/07/16 11:53:13;;;;;;;;;11.50;9.00;;;;;20.29;58.55;102252.34;4887012;29;45331;-75
2021/07/16 11:55:41;;;;;;;;;5.00;5.00;;;;;20.36;58.24;102247.53;4886101;29;45292;-76
2021/07/16 11:58:06;;;;;;;;;7.50;7.50;;;;;20.39;57.77;102257.22;4886163;29;45260;-76
2021/07/16 12:00:38;;;;;;;;;10.00;9.00;;;;;20.35;57.92;102245.81;4885767;29;45429;-76
2021/07/16 12:03:07;;;;;;;;;11.25;9.50;;;;;20.35;58.01;102253.81;4880379;29;45602;-75
2021/07/16 12:05:46;;;;;;;;;11.75;9.50;;;;;20.34;57.78;102247.63;4886000;29;45707;-76
2021/07/16 12:08:16;;;;;;;;;11.50;10.00;;;;;20.41;58.43;102255.31;4885033;29;46506;-75
2021/07/16 12:10:41;;;;;;;;;9.00;8.00;;;;;20.45;57.73;102239.06;4885708;29;46378;-76
2021/07/16 12:13:07;;;;;;;;;9.00;9.00;;;;;20.48;58.12;102243.38;4885775;29;45410;-75
2021/07/16 12:15:32;;;;;;;;;11.25;11.25;;;;;20.51;57.60;102250.38;4885232;29;45335;-75
2021/07/16 12:18:00;;;;;;;;;17.25;12.25;;;;;20.49;56.91;102247.78;4885468;29;45238;-76
2021/07/16 12:20:28;;;;;;;;;20.25;10.75;;;;;20.48;57.50;102250.53;4886080;29;46345;-75
2021/07/16 12:22:53;;;;;;;;;13.25;10.50;;;;;20.46;57.28;102253.28;4886363;29;45713;-76
2021/07/16 12:25:19;;;;;;;;;12.50;11.50;;;;;20.46;57.39;102255.94;4885633;29;45229;-76
2021/07/16 12:27:45;;;;;;;;;12.50;12.50;;;;;20.44;57.25;102252.50;4885485;29;45195;-75
2021/07/16 12:30:13;;;;;;;;;14.25;11.25;;;;;20.44;57.25;102255.16;4885997;29;46162;-76
2021/07/16 12:32:45;;;;;;;;;9.75;9.75;;;;;20.44;57.95;102245.34;4885803;29;45525;-76
2021/07/16 12:35:28;;;;;;;;;13.00;8.75;;;;;20.49;57.68;102253.13;4886025;29;45429;-75
2021/07/16 12:38:02;;;;;;;;;13.25;9.25;;;;;20.51;57.32;102245.91;4886151;29;45315;-75
2021/07/16 12:40:28;;;;;;;;;10.75;9.25;;;;;20.56;57.14;102243.00;4886292;29;46275;-76
2021/07/16 12:43:14;;;;;;;;;9.75;8.25;;;;;20.58;57.05;102247.31;4885574;29;45260;-75
2021/07/16 12:45:39;;;;;;;;;13.25;12.00;;;;;20.55;56.73;102249.25;4874253;29;45220;-76
2021/07/16 12:48:10;;;;;;;;;13.50;12.75;;;;;20.48;57.23;102253.19;4885825;29;45136;-75
2021/07/16 12:50:36;;;;;;;;;9.00;9.00;;;;;20.40;57.22;102249.09;4885319;29;45762;-76
2021/07/16 12:53:02;;;;;;;;;12.00;9.50;;;;;20.38;57.60;102260.81;4886005;29;45518;-75
2021/07/16 12:55:34;;;;;;;;;13.25;9.50;;;;;20.35;57.06;102251.16;4886164;29;45311;-76
2021/07/16 12:58:04;;;;;;;;;11.00;10.00;;;;;20.34;57.33;102260.13;4885544;29;45414;-76
2021/07/16 13:00:30;;;;;;;;;13.25;11.00;;;;;20.32;57.67;102262.84;4884310;29;45278;-76
2021/07/16 13:03:17;;;;;;;;;16.25;14.25;;;;;20.29;57.77;102259.47;4885330;29;45563;-76
2021/07/16 13:05:42;;;;;;;;;8.50;8.50;;;;;20.30;57.29;102258.53;4875848;29;45482;-76
2021/07/16 13:08:23;;;;;;;;;14.50;11.50;;;;;20.31;57.73;102265.59;4885855;29;45461;-75
2021/07/16 13:11:05;;;;;;;;;14.00;13.00;;;;;20.33;57.54;102261.91;4885586;29;45386;-75
2021/07/16 13:13:35;;;;;;;;;13.00;11.50;;;;;20.34;57.42;102266.31;4883758;29;45614;-75
2021/07/16 13:16:20;;;;;;;;;14.50;11.00;;;;;20.37;57.06;102262.63;4884137;29;45296;-75
2021/07/16 13:18:53;;;;;;;;;10.50;10.50;;;;;20.40;57.36;102264.25;4885326;29;45300;-75
2021/07/16 13:21:18;;;;;;;;;15.25;12.50;;;;;20.41;57.00;102268.66;4896354;29;48214;-76
2021/07/16 13:23:45;;;;;;;;;13.25;10.50;;;;;20.35;56.61;102272.50;4881963;29;45296;-76
2021/07/16 13:26:11;;;;;;;;;9.50;9.00;;;;;20.34;56.81;102276.13;4885491;29;45539;-76
2021/07/16 13:28:38;;;;;;;;;12.75;11.75;;;;;20.34;56.85;102279.66;4884974;29;45459;-76
2021/07/16 13:31:05;;;;;;;;;10.75;9.25;;;;;20.33;56.53;102279.72;4884611;29;45661;-76
2021/07/16 13:33:31;;;;;;;;;14.50;12.75;;;;;20.33;56.42;102275.25;4885104;29;45375;-76
2021/07/16 13:35:57;;;;;;;;;12.00;12.00;;;;;20.38;56.60;102269.69;4885357;29;45315;-76
2021/07/16 13:38:24;;;;;;;;;15.00;12.50;;;;;20.44;56.43;102272.06;4885015;29;45260;-76
2021/07/16 13:40:50;;;;;;;;;12.75;11.50;;;;;20.50;56.42;102270.00;4884593;29;46485;-76
2021/07/16 13:43:16;;;;;;;;;18.00;14.50;;;;;20.55;56.24;102270.63;4884908;29;45282;-75
2021/07/16 13:45:43;;;;;;;;;12.50;11.00;;;;;20.55;55.96;102265.28;4885439;29;45372;-76
2021/07/16 13:48:09;;;;;;;;;9.75;9.50;;;;;20.55;55.71;102266.16;4884923;29;45459;-75
2021/07/16 13:50:34;;;;;;;;;14.00;9.00;;;;;20.58;56.03;102262.47;4885056;29;45405;-76
2021/07/16 13:53:00;;;;;;;;;12.25;11.50;;;;;20.58;55.94;102257.13;4899189;28;46098;-76
2021/07/16 13:55:25;;;;;;;;;13.50;12.00;;;;;20.58;55.58;102258.00;4885306;29;45601;-76
2021/07/16 13:57:51;;;;;;;;;15.25;11.75;;;;;20.59;55.68;102253.53;4899108;29;46078;-75
2021/07/16 14:00:16;;;;;;;;;9.50;9.00;;;;;20.62;55.67;102249.81;4884522;29;45588;-75
2021/07/16 14:02:48;;;;;;;;;13.50;11.50;;;;;20.72;55.52;102252.88;4897963;29;45503;-75
2021/07/16 14:05:16;;;;;;;;;16.50;15.50;;;;;20.81;55.36;102257.72;4884850;29;45439;-75
2021/07/16 14:07:42;;;;;;;;;12.25;10.00;;;;;20.89;55.19;102258.16;4884659;29;45401;-75
2021/07/16 14:10:08;;;;;;;;;14.50;10.75;;;;;20.92;54.54;102252.69;4884308;29;46327;-76
2021/07/16 14:12:33;;;;;;;;;11.00;9.00;;;;;21.00;54.83;102251.41;4884001;29;45834;-76
2021/07/16 14:14:59;;;;;;;;;9.00;9.00;;;;;21.05;54.87;102252.06;4884894;29;45333;-76
2021/07/16 14:17:24;;;;;;;;;12.00;10.25;;;;;21.09;55.04;102250.94;4884701;29;45141;-76
2021/07/16 14:19:53;;;;;;;;;12.75;11.75;;;;;21.17;53.91;102241.63;4884321;29;46193;-75
2021/07/16 14:22:18;;;;;;;;;12.75;12.75;;;;;21.22;54.16;102244.91;4884855;29;45441;-75
2021/07/16 14:24:44;;;;;;;;;17.75;11.75;;;;;21.30;54.47;102241.81;4884373;29;45358;-75
2021/07/16 14:27:09;;;;;;;;;12.50;11.75;;;;;21.39;54.43;102245.78;4884257;29;45300;-75
2021/07/16 14:29:36;;;;;;;;;13.50;10.50;;;;;21.45;53.99;102241.00;4879627;29;46514;-76
2021/07/16 14:32:01;;;;;;;;;11.75;10.75;;;;;21.49;53.77;102239.00;4879838;29;45244;-75
2021/07/16 14:34:28;;;;;;;;;12.00;9.00;;;;;21.48;53.59;102230.09;4884458;29;45416;-75
2021/07/16 14:36:53;;;;;;;;;8.25;8.25;;;;;21.52;53.74;102238.81;4884546;29;45312;-75
2021/07/16 14:39:18;;;;;;;;;10.50;10.50;;;;;21.56;53.43;102244.84;4884036;29;46188;-76
2021/07/16 14:41:44;;;;;;;;;14.00;11.00;;;;;21.56;53.40;102239.50;4898330;29;45324;-76
2021/07/16 14:44:09;;;;;;;;;14.00;10.50;;;;;21.57;53.79;102238.56;4883860;29;45675;-75
2021/07/16 14:46:38;;;;;;;;;17.50;10.00;;;;;21.59;53.58;102247.34;4884573;29;45358;-76
2021/07/16 14:49:03;;;;;;;;;13.25;11.25;;;;;21.65;52.77;102248.84;4883479;29;46482;-76
2021/07/16 14:51:29;;;;;;;;;10.50;10.00;;;;;21.68;53.02;102240.63;4884353;29;45299;-76
2021/07/16 14:53:57;;;;;;;;;10.00;10.00;;;;;21.69;53.15;102245.03;4884073;29;45946;-76
2021/07/16 14:56:23;;;;;;;;;9.50;8.50;;;;;21.71;53.00;102243.13;4884478;29;45570;-76
2021/07/16 14:58:48;;;;;;;;;10.00;8.75;;;;;21.75;52.53;102241.16;4883763;29;45346;-76
2021/07/16 15:01:13;;;;;;;;;9.25;9.25;;;;;21.77;52.51;102245.47;4884271;29;45312;-76
2021/07/16 15:03:39;;;;;;;;;10.00;9.00;;;;;21.80;52.39;102244.44;4883461;29;45274;-75
2021/07/16 15:06:04;;;;;;;;;11.00;10.00;;;;;21.85;52.35;102234.31;4883995;29;45501;-76
2021/07/16 15:08:29;;;;;;;;;9.25;9.25;;;;;21.91;52.97;102235.78;4884151;29;46497;-76
2021/07/16 15:10:55;;;;;;;;;11.75;9.50;;;;;21.94;52.47;102229.41;4883947;29;45431;-75
2021/07/16 15:13:21;;;;;;;;;13.50;11.00;;;;;21.96;52.81;102233.72;4884085;29;45426;-76
2021/07/16 15:15:50;;;;;;;;;13.50;8.75;;;;;21.98;52.23;102228.25;4885598;29;46211;-75
2021/07/16 15:18:15;;;;;;;;;11.50;8.25;;;;;22.04;52.08;102214.53;4884857;29;47741;-76
2021/07/16 15:20:41;;;;;;;;;9.00;8.00;;;;;22.08;52.50;102220.56;4887481;29;45224;-75
2021/07/16 15:23:08;;;;;;;;;8.75;8.25;;;;;22.09;52.13;102216.94;4887476;29;45336;-76
2021/07/16 15:25:33;;;;;;;;;12.00;12.00;;;;;22.12;52.28;102216.75;4885819;29;46176;-75
2021/07/16 15:27:58;;;;;;;;;10.00;9.50;;;;;22.17;51.66;102221.84;4876336;29;45545;-76
2021/07/16 15:30:24;;;;;;;;;12.00;11.00;;;;;22.15;51.60;102217.44;4884480;29;45359;-76
2021/07/16 15:32:49;;;;;;;;;13.25;11.25;;;;;22.12;52.07;102209.59;4886767;29;45439;-75
2021/07/16 15:35:14;;;;;;;;;10.50;8.50;;;;;22.11;52.08;102210.53;4887146;29;45420;-76
2021/07/16 15:37:41;;;;;;;;;13.25;11.00;;;;;22.11;51.58;102218.56;4882555;29;48443;-76
2021/07/16 15:40:07;;;;;;;;;13.00;11.25;;;;;22.09;51.25;102214.25;4880361;29;45246;-76
2021/07/16 15:42:33;;;;;;;;;12.25;11.75;;;;;22.08;51.67;102217.88;4886016;29;45332;-76
2021/07/16 15:44:58;;;;;;;;;14.00;10.50;;;;;22.07;52.19;102226.88;4886671;29;45223;-75
2021/07/16 15:47:23;;;;;;;;;10.50;9.75;;;;;22.05;51.14;102226.09;4886732;29;45540;-76
2021/07/16 15:49:49;;;;;;;;;8.50;8.50;;;;;22.00;51.14;102235.25;4901436;29;45482;-75
2021/07/16 15:52:15;;;;;;;;;13.25;11.00;;;;;22.00;51.36;102226.38;4886754;29;45382;-76
2021/07/16 15:54:42;;;;;;;;;11.50;11.00;;;;;21.99;51.59;102238.91;4886367;29;45324;-76
2021/07/16 15:57:10;;;;;;;;;11.50;9.50;;;;;21.96;51.46;102233.72;4884343;29;47275;-76
2021/07/16 15:59:35;;;;;;;;;10.75;8.00;;;;;21.96;51.90;102230.16;4886829;29;45301;-75